sensor_id;sensor_type;location;lat;lon;timestamp;P1;durP1;ratioP1;P2;durP2;ratioP2
7365;SDS011;3723;52.220;8.792;2022-08-04T00:00:16;11.40;;;2.60;;
7365;SDS011;3723;52.220;8.792;2022-08-04T00:02:47;14.07;;;1.90;;
7365;SDS011;3723;52.220;8.792;2022-08-04T00:05:34;9.13;;;1.63;;
7365;SDS011;3723;52.220;8.792;2022-08-04T00:08:11;9.63;;;1.43;;
7365;SDS011;3723;52.220;8.792;2022-08-04T00:10:47;6.40;;;0.90;;
7365;SDS011;3723;52.220;8.792;2022-08-04T00:13:21;7.57;;;1.37;;
7365;SDS011;3723;52.220;8.792;2022-08-04T00:15:50;6.83;;;1.17;;
7365;SDS011;3723;52.220;8.792;2022-08-04T00:18:17;7.43;;;1.30;;
7365;SDS011;3723;52.220;8.792;2022-08-04T00:20:48;6.70;;;1.00;;
7365;SDS011;3723;52.220;8.792;2022-08-04T00:23:18;7.97;;;1.03;;
7365;SDS011;3723;52.220;8.792;2022-08-04T00:25:45;8.83;;;2.00;;
7365;SDS011;3723;52.220;8.792;2022-08-04T00:28:13;7.80;;;1.60;;
7365;SDS011;3723;52.220;8.792;2022-08-04T00:30:41;7.10;;;1.20;;
7365;SDS011;3723;52.220;8.792;2022-08-04T00:33:08;8.27;;;1.30;;
7365;SDS011;3723;52.220;8.792;2022-08-04T00:35:36;7.70;;;1.60;;
7365;SDS011;3723;52.220;8.792;2022-08-04T00:38:04;6.40;;;0.93;;
7365;SDS011;3723;52.220;8.792;2022-08-04T00:40:35;7.47;;;1.30;;
7365;SDS011;3723;52.220;8.792;2022-08-04T00:43:14;9.17;;;1.10;;
7365;SDS011;3723;52.220;8.792;2022-08-04T00:45:57;8.47;;;1.50;;
7365;SDS011;3723;52.220;8.792;2022-08-04T00:48:55;7.93;;;1.77;;
7365;SDS011;3723;52.220;8.792;2022-08-04T00:51:34;8.17;;;1.40;;
7365;SDS011;3723;52.220;8.792;2022-08-04T00:54:10;7.17;;;1.20;;
7365;SDS011;3723;52.220;8.792;2022-08-04T00:56:47;7.53;;;1.10;;
7365;SDS011;3723;52.220;8.792;2022-08-04T00:59:34;13.77;;;1.70;;
7365;SDS011;3723;52.220;8.792;2022-08-04T01:02:12;10.53;;;1.37;;
7365;SDS011;3723;52.220;8.792;2022-08-04T01:04:55;6.97;;;1.57;;
7365;SDS011;3723;52.220;8.792;2022-08-04T01:07:34;6.10;;;1.00;;
7365;SDS011;3723;52.220;8.792;2022-08-04T01:10:22;10.17;;;1.40;;
7365;SDS011;3723;52.220;8.792;2022-08-04T01:13:01;11.80;;;1.40;;
7365;SDS011;3723;52.220;8.792;2022-08-04T01:15:44;6.87;;;1.10;;
7365;SDS011;3723;52.220;8.792;2022-08-04T01:18:19;8.00;;;1.43;;
7365;SDS011;3723;52.220;8.792;2022-08-04T01:20:50;6.77;;;1.10;;
7365;SDS011;3723;52.220;8.792;2022-08-04T01:23:38;6.90;;;1.47;;
7365;SDS011;3723;52.220;8.792;2022-08-04T01:26:32;6.70;;;1.03;;
7365;SDS011;3723;52.220;8.792;2022-08-04T01:29:14;11.43;;;1.90;;
7365;SDS011;3723;52.220;8.792;2022-08-04T01:34:35;6.87;;;1.47;;
7365;SDS011;3723;52.220;8.792;2022-08-04T01:37:10;7.40;;;1.30;;
7365;SDS011;3723;52.220;8.792;2022-08-04T01:39:46;8.37;;;2.03;;
7365;SDS011;3723;52.220;8.792;2022-08-04T01:42:17;7.30;;;1.10;;
7365;SDS011;3723;52.220;8.792;2022-08-04T01:44:48;7.10;;;1.03;;
7365;SDS011;3723;52.220;8.792;2022-08-04T01:47:16;7.00;;;1.00;;
7365;SDS011;3723;52.220;8.792;2022-08-04T01:49:48;8.73;;;1.57;;
7365;SDS011;3723;52.220;8.792;2022-08-04T01:52:16;7.37;;;1.17;;
7365;SDS011;3723;52.220;8.792;2022-08-04T01:54:44;8.93;;;1.33;;
7365;SDS011;3723;52.220;8.792;2022-08-04T01:57:13;7.73;;;1.77;;
7365;SDS011;3723;52.220;8.792;2022-08-04T01:59:42;6.93;;;1.10;;
7365;SDS011;3723;52.220;8.792;2022-08-04T02:02:12;7.80;;;1.40;;
7365;SDS011;3723;52.220;8.792;2022-08-04T02:04:39;7.03;;;1.00;;
7365;SDS011;3723;52.220;8.792;2022-08-04T02:07:14;7.53;;;1.30;;
7365;SDS011;3723;52.220;8.792;2022-08-04T02:09:50;7.97;;;1.40;;
7365;SDS011;3723;52.220;8.792;2022-08-04T02:12:24;8.50;;;1.73;;
7365;SDS011;3723;52.220;8.792;2022-08-04T02:15:02;6.20;;;0.90;;
7365;SDS011;3723;52.220;8.792;2022-08-04T02:17:39;7.77;;;1.43;;
7365;SDS011;3723;52.220;8.792;2022-08-04T02:20:14;7.93;;;1.17;;
7365;SDS011;3723;52.220;8.792;2022-08-04T02:22:52;11.10;;;2.00;;
7365;SDS011;3723;52.220;8.792;2022-08-04T02:25:24;8.33;;;1.60;;
7365;SDS011;3723;52.220;8.792;2022-08-04T02:30:53;7.10;;;1.30;;
7365;SDS011;3723;52.220;8.792;2022-08-04T02:33:33;7.33;;;1.20;;
7365;SDS011;3723;52.220;8.792;2022-08-04T02:36:02;10.17;;;1.73;;
7365;SDS011;3723;52.220;8.792;2022-08-04T02:38:42;8.90;;;1.57;;
7365;SDS011;3723;52.220;8.792;2022-08-04T02:41:19;8.10;;;1.50;;
7365;SDS011;3723;52.220;8.792;2022-08-04T02:43:48;14.53;;;1.60;;
7365;SDS011;3723;52.220;8.792;2022-08-04T02:46:15;7.00;;;1.27;;
7365;SDS011;3723;52.220;8.792;2022-08-04T02:48:46;7.33;;;1.10;;
7365;SDS011;3723;52.220;8.792;2022-08-04T02:51:14;9.47;;;1.60;;
7365;SDS011;3723;52.220;8.792;2022-08-04T02:53:44;7.63;;;1.20;;
7365;SDS011;3723;52.220;8.792;2022-08-04T02:56:14;8.87;;;1.40;;
7365;SDS011;3723;52.220;8.792;2022-08-04T02:58:45;8.30;;;1.77;;
7365;SDS011;3723;52.220;8.792;2022-08-04T03:01:17;9.30;;;1.40;;
7365;SDS011;3723;52.220;8.792;2022-08-04T03:03:50;7.20;;;1.13;;
7365;SDS011;3723;52.220;8.792;2022-08-04T03:06:37;9.13;;;1.30;;
7365;SDS011;3723;52.220;8.792;2022-08-04T03:09:37;12.20;;;1.33;;
7365;SDS011;3723;52.220;8.792;2022-08-04T03:15:32;9.10;;;1.47;;
7365;SDS011;3723;52.220;8.792;2022-08-04T03:18:20;6.30;;;1.10;;
7365;SDS011;3723;52.220;8.792;2022-08-04T03:21:24;8.50;;;1.77;;
7365;SDS011;3723;52.220;8.792;2022-08-04T03:30:29;10.27;;;2.67;;
7365;SDS011;3723;52.220;8.792;2022-08-04T03:33:13;7.70;;;1.43;;
7365;SDS011;3723;52.220;8.792;2022-08-04T03:48:27;6.93;;;1.10;;
7365;SDS011;3723;52.220;8.792;2022-08-04T03:51:11;8.73;;;1.90;;
7365;SDS011;3723;52.220;8.792;2022-08-04T03:57:18;7.87;;;1.70;;
7365;SDS011;3723;52.220;8.792;2022-08-04T04:00:07;8.10;;;1.83;;
7365;SDS011;3723;52.220;8.792;2022-08-04T04:02:44;8.57;;;1.53;;
7365;SDS011;3723;52.220;8.792;2022-08-04T04:08:41;11.40;;;1.83;;
7365;SDS011;3723;52.220;8.792;2022-08-04T04:11:27;11.50;;;2.00;;
7365;SDS011;3723;52.220;8.792;2022-08-04T04:14:10;7.30;;;1.03;;
7365;SDS011;3723;52.220;8.792;2022-08-04T04:16:57;8.50;;;1.60;;
7365;SDS011;3723;52.220;8.792;2022-08-04T04:22:53;7.40;;;1.10;;
7365;SDS011;3723;52.220;8.792;2022-08-04T04:25:33;8.33;;;2.00;;
7365;SDS011;3723;52.220;8.792;2022-08-04T04:28:21;7.97;;;1.73;;
7365;SDS011;3723;52.220;8.792;2022-08-04T04:31:01;8.33;;;2.10;;
7365;SDS011;3723;52.220;8.792;2022-08-04T04:33:36;11.03;;;2.03;;
7365;SDS011;3723;52.220;8.792;2022-08-04T04:36:21;7.97;;;1.23;;
7365;SDS011;3723;52.220;8.792;2022-08-04T04:39:00;12.57;;;2.73;;
7365;SDS011;3723;52.220;8.792;2022-08-04T04:41:35;10.03;;;1.60;;
7365;SDS011;3723;52.220;8.792;2022-08-04T04:44:22;8.57;;;1.57;;
7365;SDS011;3723;52.220;8.792;2022-08-04T04:47:11;9.10;;;1.40;;
7365;SDS011;3723;52.220;8.792;2022-08-04T04:49:45;11.43;;;2.13;;
7365;SDS011;3723;52.220;8.792;2022-08-04T04:52:18;9.90;;;1.80;;
7365;SDS011;3723;52.220;8.792;2022-08-04T04:54:52;10.07;;;2.17;;
7365;SDS011;3723;52.220;8.792;2022-08-04T04:57:25;8.00;;;1.70;;
7365;SDS011;3723;52.220;8.792;2022-08-04T04:59:57;8.10;;;1.23;;
7365;SDS011;3723;52.220;8.792;2022-08-04T05:02:35;8.77;;;1.30;;
7365;SDS011;3723;52.220;8.792;2022-08-04T05:05:20;8.43;;;0.93;;
7365;SDS011;3723;52.220;8.792;2022-08-04T05:08:17;18.60;;;3.10;;
7365;SDS011;3723;52.220;8.792;2022-08-04T05:11:05;6.80;;;0.80;;
7365;SDS011;3723;52.220;8.792;2022-08-04T05:13:48;8.43;;;1.33;;
7365;SDS011;3723;52.220;8.792;2022-08-04T05:16:19;12.00;;;1.83;;
7365;SDS011;3723;52.220;8.792;2022-08-04T05:18:53;7.30;;;1.20;;
7365;SDS011;3723;52.220;8.792;2022-08-04T05:21:39;8.20;;;1.50;;
7365;SDS011;3723;52.220;8.792;2022-08-04T05:24:11;9.70;;;1.00;;
7365;SDS011;3723;52.220;8.792;2022-08-04T05:26:43;8.13;;;0.90;;
7365;SDS011;3723;52.220;8.792;2022-08-04T05:29:12;8.90;;;0.90;;
7365;SDS011;3723;52.220;8.792;2022-08-04T05:31:50;7.30;;;1.10;;
7365;SDS011;3723;52.220;8.792;2022-08-04T05:34:19;8.50;;;1.40;;
7365;SDS011;3723;52.220;8.792;2022-08-04T05:36:50;8.20;;;1.33;;
7365;SDS011;3723;52.220;8.792;2022-08-04T05:39:23;7.73;;;1.30;;
7365;SDS011;3723;52.220;8.792;2022-08-04T05:41:51;7.80;;;1.23;;
7365;SDS011;3723;52.220;8.792;2022-08-04T05:44:18;8.97;;;1.60;;
7365;SDS011;3723;52.220;8.792;2022-08-04T05:46:50;6.90;;;1.47;;
7365;SDS011;3723;52.220;8.792;2022-08-04T05:49:19;8.40;;;1.20;;
7365;SDS011;3723;52.220;8.792;2022-08-04T05:51:47;6.80;;;1.13;;
7365;SDS011;3723;52.220;8.792;2022-08-04T05:54:16;8.03;;;1.30;;
7365;SDS011;3723;52.220;8.792;2022-08-04T05:56:46;6.80;;;0.90;;
7365;SDS011;3723;52.220;8.792;2022-08-04T05:59:14;7.23;;;0.80;;
7365;SDS011;3723;52.220;8.792;2022-08-04T06:01:43;7.17;;;1.30;;
7365;SDS011;3723;52.220;8.792;2022-08-04T06:04:13;7.50;;;1.10;;
7365;SDS011;3723;52.220;8.792;2022-08-04T06:06:42;8.03;;;1.53;;
7365;SDS011;3723;52.220;8.792;2022-08-04T06:09:10;7.70;;;1.27;;
7365;SDS011;3723;52.220;8.792;2022-08-04T06:11:37;9.40;;;1.20;;
7365;SDS011;3723;52.220;8.792;2022-08-04T06:14:05;12.97;;;1.70;;
7365;SDS011;3723;52.220;8.792;2022-08-04T06:16:34;7.53;;;1.20;;
7365;SDS011;3723;52.220;8.792;2022-08-04T06:19:05;7.00;;;1.10;;
7365;SDS011;3723;52.220;8.792;2022-08-04T06:21:36;7.50;;;1.30;;
7365;SDS011;3723;52.220;8.792;2022-08-04T06:24:06;16.40;;;1.30;;
7365;SDS011;3723;52.220;8.792;2022-08-04T06:26:36;7.57;;;1.10;;
7365;SDS011;3723;52.220;8.792;2022-08-04T06:29:04;12.47;;;1.00;;
7365;SDS011;3723;52.220;8.792;2022-08-04T06:31:39;6.77;;;0.90;;
7365;SDS011;3723;52.220;8.792;2022-08-04T06:34:12;7.63;;;1.10;;
7365;SDS011;3723;52.220;8.792;2022-08-04T06:36:41;8.70;;;1.30;;
7365;SDS011;3723;52.220;8.792;2022-08-04T06:39:08;10.30;;;2.33;;
7365;SDS011;3723;52.220;8.792;2022-08-04T06:41:36;8.30;;;1.30;;
7365;SDS011;3723;52.220;8.792;2022-08-04T06:44:06;8.23;;;1.37;;
7365;SDS011;3723;52.220;8.792;2022-08-04T06:46:37;8.63;;;1.27;;
7365;SDS011;3723;52.220;8.792;2022-08-04T06:49:06;8.40;;;1.20;;
7365;SDS011;3723;52.220;8.792;2022-08-04T06:51:34;6.63;;;0.90;;
7365;SDS011;3723;52.220;8.792;2022-08-04T06:54:03;7.90;;;1.23;;
7365;SDS011;3723;52.220;8.792;2022-08-04T06:56:31;6.10;;;0.90;;
7365;SDS011;3723;52.220;8.792;2022-08-04T06:59:00;7.47;;;0.87;;
7365;SDS011;3723;52.220;8.792;2022-08-04T07:01:28;10.00;;;1.23;;
7365;SDS011;3723;52.220;8.792;2022-08-04T07:03:56;7.50;;;0.90;;
7365;SDS011;3723;52.220;8.792;2022-08-04T07:06:24;6.30;;;1.00;;
7365;SDS011;3723;52.220;8.792;2022-08-04T07:08:51;7.70;;;1.50;;
7365;SDS011;3723;52.220;8.792;2022-08-04T07:11:19;8.07;;;1.10;;
7365;SDS011;3723;52.220;8.792;2022-08-04T07:13:47;8.77;;;0.90;;
7365;SDS011;3723;52.220;8.792;2022-08-04T07:16:15;8.10;;;1.00;;
7365;SDS011;3723;52.220;8.792;2022-08-04T07:18:43;8.13;;;1.00;;
7365;SDS011;3723;52.220;8.792;2022-08-04T07:21:10;8.10;;;1.93;;
7365;SDS011;3723;52.220;8.792;2022-08-04T07:23:45;8.83;;;1.20;;
7365;SDS011;3723;52.220;8.792;2022-08-04T07:26:12;6.83;;;0.80;;
7365;SDS011;3723;52.220;8.792;2022-08-04T07:28:42;7.10;;;0.90;;
7365;SDS011;3723;52.220;8.792;2022-08-04T07:31:10;8.10;;;1.20;;
7365;SDS011;3723;52.220;8.792;2022-08-04T07:33:40;7.90;;;0.87;;
7365;SDS011;3723;52.220;8.792;2022-08-04T07:36:08;9.97;;;1.40;;
7365;SDS011;3723;52.220;8.792;2022-08-04T07:38:35;6.07;;;0.80;;
7365;SDS011;3723;52.220;8.792;2022-08-04T07:41:03;8.80;;;1.20;;
7365;SDS011;3723;52.220;8.792;2022-08-04T07:43:31;8.60;;;0.97;;
7365;SDS011;3723;52.220;8.792;2022-08-04T07:45:59;7.03;;;0.70;;
7365;SDS011;3723;52.220;8.792;2022-08-04T07:48:27;7.03;;;1.00;;
7365;SDS011;3723;52.220;8.792;2022-08-04T07:50:54;6.70;;;0.80;;
7365;SDS011;3723;52.220;8.792;2022-08-04T07:53:21;6.33;;;0.80;;
7365;SDS011;3723;52.220;8.792;2022-08-04T07:55:49;6.50;;;0.80;;
7365;SDS011;3723;52.220;8.792;2022-08-04T07:58:17;8.77;;;1.10;;
7365;SDS011;3723;52.220;8.792;2022-08-04T08:00:44;6.30;;;0.80;;
7365;SDS011;3723;52.220;8.792;2022-08-04T08:03:13;6.53;;;1.07;;
7365;SDS011;3723;52.220;8.792;2022-08-04T08:05:41;6.60;;;0.90;;
7365;SDS011;3723;52.220;8.792;2022-08-04T08:08:08;6.20;;;0.90;;
7365;SDS011;3723;52.220;8.792;2022-08-04T08:10:36;6.97;;;0.80;;
7365;SDS011;3723;52.220;8.792;2022-08-04T08:13:03;7.10;;;1.10;;
7365;SDS011;3723;52.220;8.792;2022-08-04T08:15:32;7.93;;;0.70;;
7365;SDS011;3723;52.220;8.792;2022-08-04T08:17:59;8.10;;;1.00;;
7365;SDS011;3723;52.220;8.792;2022-08-04T08:20:32;7.57;;;1.07;;
7365;SDS011;3723;52.220;8.792;2022-08-04T08:23:00;8.43;;;0.80;;
7365;SDS011;3723;52.220;8.792;2022-08-04T08:25:43;9.50;;;1.03;;
7365;SDS011;3723;52.220;8.792;2022-08-04T08:28:10;6.53;;;0.87;;
7365;SDS011;3723;52.220;8.792;2022-08-04T08:30:37;8.73;;;0.93;;
7365;SDS011;3723;52.220;8.792;2022-08-04T08:33:05;6.77;;;0.93;;
7365;SDS011;3723;52.220;8.792;2022-08-04T08:35:40;6.50;;;0.80;;
7365;SDS011;3723;52.220;8.792;2022-08-04T08:41:20;6.30;;;0.87;;
7365;SDS011;3723;52.220;8.792;2022-08-04T08:44:03;8.20;;;0.90;;
7365;SDS011;3723;52.220;8.792;2022-08-04T08:46:53;6.13;;;0.70;;
7365;SDS011;3723;52.220;8.792;2022-08-04T08:49:36;8.30;;;1.00;;
7365;SDS011;3723;52.220;8.792;2022-08-04T08:52:43;9.07;;;0.80;;
7365;SDS011;3723;52.220;8.792;2022-08-04T08:55:25;11.40;;;1.23;;
7365;SDS011;3723;52.220;8.792;2022-08-04T09:01:24;8.40;;;1.00;;
7365;SDS011;3723;52.220;8.792;2022-08-04T09:04:06;6.23;;;0.87;;
7365;SDS011;3723;52.220;8.792;2022-08-04T09:06:50;6.23;;;0.73;;
7365;SDS011;3723;52.220;8.792;2022-08-04T09:09:28;7.10;;;1.27;;
7365;SDS011;3723;52.220;8.792;2022-08-04T09:12:17;6.30;;;0.80;;
7365;SDS011;3723;52.220;8.792;2022-08-04T09:15:01;8.80;;;0.97;;
7365;SDS011;3723;52.220;8.792;2022-08-04T09:17:32;6.30;;;0.67;;
7365;SDS011;3723;52.220;8.792;2022-08-04T09:20:06;6.90;;;1.00;;
7365;SDS011;3723;52.220;8.792;2022-08-04T09:22:49;6.93;;;0.77;;
7365;SDS011;3723;52.220;8.792;2022-08-04T09:25:21;8.73;;;1.05;;
7365;SDS011;3723;52.220;8.792;2022-08-04T09:27:51;6.53;;;1.00;;
7365;SDS011;3723;52.220;8.792;2022-08-04T09:30:22;9.45;;;0.80;;
7365;SDS011;3723;52.220;8.792;2022-08-04T09:32:59;7.40;;;1.17;;
7365;SDS011;3723;52.220;8.792;2022-08-04T09:35:38;6.10;;;0.90;;
7365;SDS011;3723;52.220;8.792;2022-08-04T09:38:14;6.57;;;1.00;;
7365;SDS011;3723;52.220;8.792;2022-08-04T09:40:48;6.37;;;0.90;;
7365;SDS011;3723;52.220;8.792;2022-08-04T09:43:29;6.27;;;0.80;;
7365;SDS011;3723;52.220;8.792;2022-08-04T09:46:04;8.00;;;1.47;;
7365;SDS011;3723;52.220;8.792;2022-08-04T09:48:36;6.30;;;0.90;;
7365;SDS011;3723;52.220;8.792;2022-08-04T09:51:19;6.33;;;0.80;;
7365;SDS011;3723;52.220;8.792;2022-08-04T09:54:00;6.60;;;0.87;;
7365;SDS011;3723;52.220;8.792;2022-08-04T09:56:34;6.50;;;1.00;;
7365;SDS011;3723;52.220;8.792;2022-08-04T09:59:10;6.10;;;0.87;;
7365;SDS011;3723;52.220;8.792;2022-08-04T10:01:44;6.97;;;0.90;;
7365;SDS011;3723;52.220;8.792;2022-08-04T10:04:16;6.20;;;0.90;;
7365;SDS011;3723;52.220;8.792;2022-08-04T10:06:51;8.07;;;1.13;;
7365;SDS011;3723;52.220;8.792;2022-08-04T10:09:40;7.37;;;0.70;;
7365;SDS011;3723;52.220;8.792;2022-08-04T10:12:25;6.67;;;1.03;;
7365;SDS011;3723;52.220;8.792;2022-08-04T10:14:57;6.40;;;1.00;;
7365;SDS011;3723;52.220;8.792;2022-08-04T10:17:37;6.20;;;0.80;;
7365;SDS011;3723;52.220;8.792;2022-08-04T10:20:12;6.33;;;1.00;;
7365;SDS011;3723;52.220;8.792;2022-08-04T10:22:47;7.37;;;0.90;;
7365;SDS011;3723;52.220;8.792;2022-08-04T10:25:29;6.17;;;0.80;;
7365;SDS011;3723;52.220;8.792;2022-08-04T10:28:10;6.70;;;0.90;;
7365;SDS011;3723;52.220;8.792;2022-08-04T10:30:41;7.37;;;0.90;;
7365;SDS011;3723;52.220;8.792;2022-08-04T10:33:17;7.80;;;1.38;;
7365;SDS011;3723;52.220;8.792;2022-08-04T10:35:50;6.65;;;0.90;;
7365;SDS011;3723;52.220;8.792;2022-08-04T10:38:21;6.40;;;0.80;;
7365;SDS011;3723;52.220;8.792;2022-08-04T10:40:55;6.22;;;0.82;;
7365;SDS011;3723;52.220;8.792;2022-08-04T10:43:30;7.05;;;0.95;;
7365;SDS011;3723;52.220;8.792;2022-08-04T10:46:06;6.22;;;0.80;;
7365;SDS011;3723;52.220;8.792;2022-08-04T10:48:39;6.13;;;1.00;;
7365;SDS011;3723;52.220;8.792;2022-08-04T10:51:10;6.88;;;1.00;;
7365;SDS011;3723;52.220;8.792;2022-08-04T10:53:45;6.28;;;1.17;;
7365;SDS011;3723;52.220;8.792;2022-08-04T10:56:16;5.95;;;0.82;;
7365;SDS011;3723;52.220;8.792;2022-08-04T10:58:55;7.32;;;1.15;;
7365;SDS011;3723;52.220;8.792;2022-08-04T11:01:28;6.90;;;0.80;;
7365;SDS011;3723;52.220;8.792;2022-08-04T11:03:59;6.80;;;0.90;;
7365;SDS011;3723;52.220;8.792;2022-08-04T11:06:31;6.63;;;0.90;;
7365;SDS011;3723;52.220;8.792;2022-08-04T11:09:00;8.63;;;0.85;;
7365;SDS011;3723;52.220;8.792;2022-08-04T11:11:30;5.80;;;0.70;;
7365;SDS011;3723;52.220;8.792;2022-08-04T11:14:03;9.48;;;0.90;;
7365;SDS011;3723;52.220;8.792;2022-08-04T11:16:35;6.35;;;0.90;;
7365;SDS011;3723;52.220;8.792;2022-08-04T11:19:09;6.50;;;1.10;;
7365;SDS011;3723;52.220;8.792;2022-08-04T11:21:46;5.88;;;0.73;;
7365;SDS011;3723;52.220;8.792;2022-08-04T11:24:21;7.10;;;1.13;;
7365;SDS011;3723;52.220;8.792;2022-08-04T11:26:55;6.88;;;1.00;;
7365;SDS011;3723;52.220;8.792;2022-08-04T11:29:28;6.25;;;0.80;;
7365;SDS011;3723;52.220;8.792;2022-08-04T11:32:00;6.35;;;0.90;;
7365;SDS011;3723;52.220;8.792;2022-08-04T11:34:29;7.10;;;0.82;;
7365;SDS011;3723;52.220;8.792;2022-08-04T11:36:58;5.93;;;0.70;;
7365;SDS011;3723;52.220;8.792;2022-08-04T11:39:32;6.10;;;0.70;;
7365;SDS011;3723;52.220;8.792;2022-08-04T11:42:09;5.88;;;0.70;;
7365;SDS011;3723;52.220;8.792;2022-08-04T11:44:47;8.02;;;1.13;;
7365;SDS011;3723;52.220;8.792;2022-08-04T11:47:24;6.53;;;1.00;;
7365;SDS011;3723;52.220;8.792;2022-08-04T11:49:57;5.90;;;0.80;;
7365;SDS011;3723;52.220;8.792;2022-08-04T11:52:29;7.60;;;1.30;;
7365;SDS011;3723;52.220;8.792;2022-08-04T11:54:58;6.97;;;1.02;;
7365;SDS011;3723;52.220;8.792;2022-08-04T11:57:29;5.75;;;0.63;;
7365;SDS011;3723;52.220;8.792;2022-08-04T11:59:57;8.20;;;0.93;;
7365;SDS011;3723;52.220;8.792;2022-08-04T12:02:32;7.25;;;0.90;;
7365;SDS011;3723;52.220;8.792;2022-08-04T12:05:23;6.20;;;0.80;;
7365;SDS011;3723;52.220;8.792;2022-08-04T12:07:54;6.00;;;0.80;;
7365;SDS011;3723;52.220;8.792;2022-08-04T12:10:35;6.13;;;0.98;;
7365;SDS011;3723;52.220;8.792;2022-08-04T12:13:14;6.13;;;0.80;;
7365;SDS011;3723;52.220;8.792;2022-08-04T12:15:55;7.32;;;0.80;;
7365;SDS011;3723;52.220;8.792;2022-08-04T12:18:29;6.10;;;0.80;;
7365;SDS011;3723;52.220;8.792;2022-08-04T12:21:04;9.48;;;0.90;;
7365;SDS011;3723;52.220;8.792;2022-08-04T12:23:35;7.80;;;0.97;;
7365;SDS011;3723;52.220;8.792;2022-08-04T12:26:05;6.70;;;1.00;;
7365;SDS011;3723;52.220;8.792;2022-08-04T12:28:36;6.40;;;0.80;;
7365;SDS011;3723;52.220;8.792;2022-08-04T12:31:10;6.50;;;0.83;;
7365;SDS011;3723;52.220;8.792;2022-08-04T12:33:43;5.90;;;0.70;;
7365;SDS011;3723;52.220;8.792;2022-08-04T12:36:18;7.13;;;0.90;;
7365;SDS011;3723;52.220;8.792;2022-08-04T12:38:48;6.20;;;0.90;;
7365;SDS011;3723;52.220;8.792;2022-08-04T12:41:23;7.28;;;1.23;;
7365;SDS011;3723;52.220;8.792;2022-08-04T12:44:02;8.70;;;1.00;;
7365;SDS011;3723;52.220;8.792;2022-08-04T12:46:32;6.57;;;0.80;;
7365;SDS011;3723;52.220;8.792;2022-08-04T12:49:00;7.00;;;0.80;;
7365;SDS011;3723;52.220;8.792;2022-08-04T12:51:28;6.20;;;0.70;;
7365;SDS011;3723;52.220;8.792;2022-08-04T12:54:02;6.43;;;0.90;;
7365;SDS011;3723;52.220;8.792;2022-08-04T12:56:30;7.30;;;0.82;;
7365;SDS011;3723;52.220;8.792;2022-08-04T12:58:59;6.00;;;0.80;;
7365;SDS011;3723;52.220;8.792;2022-08-04T13:01:28;12.95;;;0.70;;
7365;SDS011;3723;52.220;8.792;2022-08-04T13:03:58;7.45;;;1.23;;
7365;SDS011;3723;52.220;8.792;2022-08-04T13:06:27;6.30;;;0.90;;
7365;SDS011;3723;52.220;8.792;2022-08-04T13:09:01;5.70;;;0.60;;
7365;SDS011;3723;52.220;8.792;2022-08-04T13:11:33;7.13;;;0.70;;
7365;SDS011;3723;52.220;8.792;2022-08-04T13:14:02;6.43;;;0.70;;
7365;SDS011;3723;52.220;8.792;2022-08-04T13:16:31;6.45;;;0.80;;
7365;SDS011;3723;52.220;8.792;2022-08-04T13:19:00;6.40;;;0.88;;
7365;SDS011;3723;52.220;8.792;2022-08-04T13:21:27;6.30;;;0.75;;
7365;SDS011;3723;52.220;8.792;2022-08-04T13:23:56;6.00;;;0.60;;
7365;SDS011;3723;52.220;8.792;2022-08-04T13:26:28;5.78;;;0.60;;
7365;SDS011;3723;52.220;8.792;2022-08-04T13:28:57;6.53;;;0.80;;
7365;SDS011;3723;52.220;8.792;2022-08-04T13:31:27;6.03;;;0.70;;
7365;SDS011;3723;52.220;8.792;2022-08-04T13:34:03;6.03;;;0.70;;
7365;SDS011;3723;52.220;8.792;2022-08-04T13:36:32;9.52;;;1.15;;
7365;SDS011;3723;52.220;8.792;2022-08-04T13:39:03;5.97;;;0.80;;
7365;SDS011;3723;52.220;8.792;2022-08-04T13:41:33;6.55;;;0.90;;
7365;SDS011;3723;52.220;8.792;2022-08-04T13:44:02;6.40;;;0.80;;
7365;SDS011;3723;52.220;8.792;2022-08-04T13:46:36;5.90;;;0.70;;
7365;SDS011;3723;52.220;8.792;2022-08-04T13:49:08;5.90;;;0.75;;
7365;SDS011;3723;52.220;8.792;2022-08-04T13:51:38;13.45;;;1.27;;
7365;SDS011;3723;52.220;8.792;2022-08-04T13:54:06;6.10;;;0.77;;
7365;SDS011;3723;52.220;8.792;2022-08-04T13:56:35;8.20;;;1.07;;
7365;SDS011;3723;52.220;8.792;2022-08-04T13:59:05;6.47;;;0.88;;
7365;SDS011;3723;52.220;8.792;2022-08-04T14:01:36;7.23;;;0.80;;
7365;SDS011;3723;52.220;8.792;2022-08-04T14:04:11;6.20;;;1.03;;
7365;SDS011;3723;52.220;8.792;2022-08-04T14:06:43;6.40;;;0.93;;
7365;SDS011;3723;52.220;8.792;2022-08-04T14:09:15;6.70;;;0.80;;
7365;SDS011;3723;52.220;8.792;2022-08-04T14:11:44;6.53;;;0.90;;
7365;SDS011;3723;52.220;8.792;2022-08-04T14:14:12;8.40;;;1.30;;
7365;SDS011;3723;52.220;8.792;2022-08-04T14:16:53;7.43;;;1.17;;
7365;SDS011;3723;52.220;8.792;2022-08-04T14:19:22;7.30;;;0.97;;
7365;SDS011;3723;52.220;8.792;2022-08-04T14:21:49;9.40;;;0.80;;
7365;SDS011;3723;52.220;8.792;2022-08-04T14:24:21;8.80;;;0.80;;
7365;SDS011;3723;52.220;8.792;2022-08-04T14:26:49;6.90;;;0.90;;
7365;SDS011;3723;52.220;8.792;2022-08-04T14:29:17;6.20;;;0.90;;
7365;SDS011;3723;52.220;8.792;2022-08-04T14:31:46;6.67;;;0.90;;
7365;SDS011;3723;52.220;8.792;2022-08-04T14:34:24;5.90;;;0.70;;
7365;SDS011;3723;52.220;8.792;2022-08-04T14:36:52;6.20;;;0.80;;
7365;SDS011;3723;52.220;8.792;2022-08-04T14:39:34;6.60;;;0.83;;
7365;SDS011;3723;52.220;8.792;2022-08-04T14:42:03;6.60;;;0.90;;
7365;SDS011;3723;52.220;8.792;2022-08-04T14:44:30;6.80;;;0.90;;
7365;SDS011;3723;52.220;8.792;2022-08-04T14:46:57;11.43;;;1.57;;
7365;SDS011;3723;52.220;8.792;2022-08-04T14:49:27;8.67;;;1.20;;
7365;SDS011;3723;52.220;8.792;2022-08-04T14:51:55;11.40;;;1.17;;
7365;SDS011;3723;52.220;8.792;2022-08-04T14:54:27;7.87;;;1.30;;
7365;SDS011;3723;52.220;8.792;2022-08-04T14:56:56;10.00;;;1.20;;
7365;SDS011;3723;52.220;8.792;2022-08-04T14:59:39;8.43;;;1.47;;
7365;SDS011;3723;52.220;8.792;2022-08-04T15:02:07;7.73;;;1.20;;
7365;SDS011;3723;52.220;8.792;2022-08-04T15:04:36;7.60;;;1.50;;
7365;SDS011;3723;52.220;8.792;2022-08-04T15:07:05;6.80;;;1.23;;
7365;SDS011;3723;52.220;8.792;2022-08-04T15:09:32;7.90;;;2.20;;
7365;SDS011;3723;52.220;8.792;2022-08-04T15:12:00;8.40;;;0.90;;
7365;SDS011;3723;52.220;8.792;2022-08-04T15:14:28;6.43;;;0.90;;
7365;SDS011;3723;52.220;8.792;2022-08-04T15:16:55;6.93;;;0.90;;
7365;SDS011;3723;52.220;8.792;2022-08-04T15:19:22;7.20;;;1.10;;
7365;SDS011;3723;52.220;8.792;2022-08-04T15:21:51;6.50;;;0.90;;
7365;SDS011;3723;52.220;8.792;2022-08-04T15:24:20;8.20;;;1.20;;
7365;SDS011;3723;52.220;8.792;2022-08-04T15:26:48;8.30;;;1.10;;
7365;SDS011;3723;52.220;8.792;2022-08-04T15:29:19;7.60;;;1.53;;
7365;SDS011;3723;52.220;8.792;2022-08-04T15:31:52;8.20;;;1.83;;
7365;SDS011;3723;52.220;8.792;2022-08-04T15:34:21;19.73;;;8.90;;
7365;SDS011;3723;52.220;8.792;2022-08-04T15:36:52;9.30;;;1.87;;
7365;SDS011;3723;52.220;8.792;2022-08-04T15:39:25;11.40;;;3.67;;
7365;SDS011;3723;52.220;8.792;2022-08-04T15:42:04;12.10;;;3.53;;
7365;SDS011;3723;52.220;8.792;2022-08-04T15:44:47;8.77;;;2.53;;
7365;SDS011;3723;52.220;8.792;2022-08-04T15:47:27;9.90;;;2.57;;
7365;SDS011;3723;52.220;8.792;2022-08-04T15:50:01;8.77;;;1.90;;
7365;SDS011;3723;52.220;8.792;2022-08-04T15:52:44;15.90;;;4.23;;
7365;SDS011;3723;52.220;8.792;2022-08-04T15:55:32;12.63;;;3.97;;
7365;SDS011;3723;52.220;8.792;2022-08-04T15:58:00;7.37;;;1.60;;
7365;SDS011;3723;52.220;8.792;2022-08-04T16:00:30;13.60;;;4.70;;
7365;SDS011;3723;52.220;8.792;2022-08-04T16:03:46;23.50;;;7.30;;
7365;SDS011;3723;52.220;8.792;2022-08-04T16:09:10;18.00;;;4.90;;
7365;SDS011;3723;52.220;8.792;2022-08-04T16:11:50;11.57;;;3.00;;
7365;SDS011;3723;52.220;8.792;2022-08-04T16:14:29;26.07;;;5.57;;
7365;SDS011;3723;52.220;8.792;2022-08-04T16:17:13;14.10;;;4.20;;
7365;SDS011;3723;52.220;8.792;2022-08-04T16:19:48;10.00;;;2.30;;
7365;SDS011;3723;52.220;8.792;2022-08-04T16:22:30;7.67;;;1.20;;
7365;SDS011;3723;52.220;8.792;2022-08-04T16:25:01;8.77;;;2.50;;
7365;SDS011;3723;52.220;8.792;2022-08-04T16:27:36;11.60;;;2.70;;
7365;SDS011;3723;52.220;8.792;2022-08-04T16:30:05;13.90;;;3.63;;
7365;SDS011;3723;52.220;8.792;2022-08-04T16:32:40;16.60;;;6.10;;
7365;SDS011;3723;52.220;8.792;2022-08-04T16:35:21;12.23;;;4.70;;
7365;SDS011;3723;52.220;8.792;2022-08-04T16:37:52;14.57;;;4.50;;
7365;SDS011;3723;52.220;8.792;2022-08-04T16:40:37;17.53;;;6.17;;